createdAt,value
2018-02-20T00:01:09.874Z,48.00
2018-02-20T00:03:37.414Z,53.77
2018-02-20T00:06:04.938Z,58.60
2018-02-20T00:08:32.537Z,53.50
2018-02-20T00:11:00.135Z,54.90
2018-02-20T00:13:27.682Z,53.30
2018-02-20T00:15:55.234Z,55.33
2018-02-20T00:18:23.967Z,55.00
2018-02-20T00:20:51.738Z,52.87
2018-02-20T00:23:19.288Z,52.07
2018-02-20T00:25:46.827Z,69.30
2018-02-20T00:28:14.387Z,58.93
2018-02-20T00:30:41.988Z,60.23
2018-02-20T00:33:09.681Z,54.33
2018-02-20T00:35:37.502Z,57.57
2018-02-20T00:38:05.063Z,59.83
2018-02-20T00:40:32.625Z,60.00
2018-02-20T00:43:00.158Z,61.20
2018-02-20T00:45:27.951Z,58.30
2018-02-20T00:47:55.473Z,64.83
2018-02-20T00:50:23.065Z,64.13
2018-02-20T00:52:50.620Z,72.60
2018-02-20T00:55:18.141Z,62.03
2018-02-20T00:57:45.704Z,74.60
2018-02-20T01:00:13.289Z,63.20
2018-02-20T01:02:40.816Z,73.87
2018-02-20T01:05:08.356Z,68.23
2018-02-20T01:07:35.985Z,68.90
2018-02-20T01:10:03.562Z,76.97
2018-02-20T01:12:31.062Z,63.47
2018-02-20T01:14:58.614Z,71.13
2018-02-20T01:17:26.129Z,75.97
2018-02-20T01:19:53.719Z,67.63
2018-02-20T01:22:21.277Z,69.00
2018-02-20T01:24:48.810Z,66.93
2018-02-20T01:27:16.418Z,68.67
2018-02-20T01:29:44.070Z,71.80
2018-02-20T01:32:11.576Z,71.77
2018-02-20T01:34:39.120Z,78.13
2018-02-20T01:37:06.718Z,75.63
2018-02-20T01:39:34.261Z,75.93
2018-02-20T01:42:01.786Z,71.43
2018-02-20T01:44:29.331Z,71.47
2018-02-20T01:46:56.853Z,73.07
2018-02-20T01:49:24.629Z,87.80
2018-02-20T01:51:52.516Z,78.70
2018-02-20T01:54:20.041Z,87.70
2018-02-20T01:56:47.583Z,82.50
2018-02-20T01:59:15.151Z,74.37
2018-02-20T02:01:42.701Z,68.57
2018-02-20T02:04:10.306Z,83.23
2018-02-20T02:06:37.882Z,89.33
2018-02-20T02:09:05.416Z,74.93
2018-02-20T02:11:32.937Z,87.87
2018-02-20T02:14:00.558Z,74.17
2018-02-20T02:16:28.084Z,84.77
2018-02-20T02:18:55.629Z,84.63
2018-02-20T02:21:23.191Z,81.33
2018-02-20T02:23:50.728Z,88.93
2018-02-20T02:26:18.557Z,81.00
2018-02-20T02:28:46.111Z,75.67
2018-02-20T02:31:13.654Z,85.33
2018-02-20T02:33:41.186Z,85.17
2018-02-20T02:36:08.750Z,78.27
2018-02-20T02:38:36.274Z,90.27
2018-02-20T02:41:03.793Z,81.70
2018-02-20T02:43:31.328Z,86.57
2018-02-20T02:45:58.847Z,87.23
2018-02-20T02:48:26.711Z,89.07
2018-02-20T02:50:54.472Z,89.90
2018-02-20T02:53:22.032Z,89.30
2018-02-20T02:55:49.593Z,90.23
2018-02-20T02:58:17.458Z,91.93
2018-02-20T03:00:45.280Z,82.13
2018-02-20T03:03:12.818Z,94.90
2018-02-20T03:05:40.363Z,83.03
2018-02-20T03:08:07.955Z,82.37
2018-02-20T03:10:35.546Z,82.87
2018-02-20T03:13:03.332Z,87.07
2018-02-20T03:15:30.859Z,86.23
2018-02-20T03:17:58.378Z,90.53
2018-02-20T03:20:25.926Z,85.63
2018-02-20T03:22:53.434Z,86.73
2018-02-20T03:25:20.955Z,83.93
2018-02-20T03:27:48.497Z,96.93
2018-02-20T03:30:16.364Z,83.00
2018-02-20T03:32:44.238Z,84.90
2018-02-20T03:35:11.803Z,86.20
2018-02-20T03:37:39.331Z,101.53
2018-02-20T03:40:06.907Z,77.70
2018-02-20T03:42:34.674Z,82.87
2018-02-20T03:45:02.212Z,91.50
2018-02-20T03:47:30.016Z,78.60
2018-02-20T03:49:57.530Z,81.87
2018-02-20T03:52:25.064Z,84.77
2018-02-20T03:54:52.885Z,91.57
2018-02-20T03:57:20.455Z,80.43
2018-02-20T03:59:48.015Z,74.20
2018-02-20T04:02:15.536Z,89.40
2018-02-20T04:04:43.096Z,88.23
2018-02-20T04:07:10.628Z,83.93
2018-02-20T04:09:38.188Z,90.97
2018-02-20T04:12:05.740Z,76.03
2018-02-20T04:14:33.279Z,86.83
2018-02-20T04:17:00.806Z,82.17
2018-02-20T04:19:28.598Z,79.40
2018-02-20T04:21:56.467Z,80.83
2018-02-20T04:24:23.983Z,82.73
2018-02-20T04:26:51.796Z,95.77
2018-02-20T04:29:19.664Z,76.57
2018-02-20T04:31:47.178Z,92.40
2018-02-20T04:34:14.727Z,95.17
2018-02-20T04:36:42.260Z,92.97
2018-02-20T04:39:09.791Z,91.13
2018-02-20T04:41:37.375Z,88.97
2018-02-20T04:44:05.150Z,81.80
2018-02-20T04:46:32.662Z,83.57
2018-02-20T04:49:00.210Z,97.77
2018-02-20T04:51:28.026Z,90.30
2018-02-20T04:53:55.594Z,79.50
2018-02-20T04:56:23.111Z,85.77
2018-02-20T04:58:51.007Z,94.00
2018-02-20T05:01:18.885Z,93.20
2018-02-20T05:03:46.746Z,79.57
2018-02-20T05:06:14.289Z,77.17
2018-02-20T05:08:41.809Z,96.87
2018-02-20T05:11:09.354Z,87.17
2018-02-20T05:13:36.898Z,91.90
2018-02-20T05:16:04.450Z,88.13
2018-02-20T05:18:32.007Z,92.70
2018-02-20T05:20:59.572Z,90.50
2018-02-20T05:23:27.168Z,89.90
2018-02-20T05:25:54.718Z,93.37
2018-02-20T05:28:22.549Z,84.97
2018-02-20T05:30:50.148Z,89.40
2018-02-20T05:33:17.679Z,88.63
2018-02-20T05:35:45.243Z,83.90
2018-02-20T05:38:12.771Z,88.03
2018-02-20T05:40:40.331Z,87.93
2018-02-20T05:43:07.906Z,90.13
2018-02-20T05:45:35.684Z,91.50
2018-02-20T05:48:03.225Z,98.60
2018-02-20T05:50:30.758Z,95.43
2018-02-20T05:52:58.279Z,97.70
2018-02-20T05:55:25.800Z,99.17
2018-02-20T05:57:53.357Z,85.23
2018-02-20T06:00:20.911Z,80.97
2018-02-20T06:02:48.463Z,95.33
2018-02-20T06:05:15.986Z,95.17
2018-02-20T06:07:43.955Z,108.93
2018-02-20T06:10:11.501Z,93.77
2018-02-20T06:12:39.036Z,99.63
2018-02-20T06:15:06.568Z,95.83
2018-02-20T06:17:34.102Z,88.67
2018-02-20T06:20:01.661Z,89.40
2018-02-20T06:22:29.178Z,86.17
2018-02-20T06:24:56.734Z,94.03
2018-02-20T06:27:24.302Z,92.67
2018-02-20T06:29:51.898Z,115.37
2018-02-20T06:32:19.465Z,89.73
2018-02-20T06:34:47.495Z,105.40
2018-02-20T06:37:15.072Z,100.33
2018-02-20T06:39:42.642Z,93.30
2018-02-20T06:42:10.499Z,109.33
2018-02-20T06:44:38.025Z,92.03
2018-02-20T06:47:05.589Z,102.97
2018-02-20T06:49:33.128Z,81.80
2018-02-20T06:52:00.658Z,94.40
2018-02-20T06:54:28.188Z,105.20
2018-02-20T06:56:55.725Z,104.87
2018-02-20T06:59:23.246Z,93.73
2018-02-20T07:01:50.792Z,88.37
2018-02-20T07:04:18.754Z,93.00
2018-02-20T07:06:46.422Z,95.73
2018-02-20T07:09:13.950Z,103.63
2018-02-20T07:11:41.482Z,112.23
2018-02-20T07:14:09.308Z,93.63
2018-02-20T07:16:36.885Z,94.47
2018-02-20T07:19:04.419Z,91.73
2018-02-20T07:21:32.039Z,91.20
2018-02-20T07:23:59.568Z,80.07
2018-02-20T07:26:27.426Z,101.47
2018-02-20T07:28:55.013Z,101.43
2018-02-20T07:31:22.839Z,90.50
2018-02-20T07:33:50.390Z,111.40
2018-02-20T07:36:18.166Z,89.20
2018-02-20T07:38:45.759Z,87.07
2018-02-20T07:41:13.324Z,106.20
2018-02-20T07:43:40.868Z,94.33
2018-02-20T07:46:08.438Z,102.40
2018-02-20T07:48:35.976Z,109.70
2018-02-20T07:51:03.520Z,99.83
2018-02-20T07:53:31.045Z,109.33
2018-02-20T07:55:58.639Z,96.87
2018-02-20T07:58:26.199Z,108.00
2018-02-20T08:00:53.791Z,101.23
2018-02-20T08:03:21.349Z,104.00
2018-02-20T08:05:48.913Z,96.07
2018-02-20T08:08:16.448Z,96.70
2018-02-20T08:10:44.015Z,101.03
2018-02-20T08:13:11.534Z,108.10
2018-02-20T08:15:39.122Z,88.37
2018-02-20T08:18:06.708Z,106.07
2018-02-20T08:20:34.246Z,109.97
2018-02-20T08:23:01.787Z,98.87
2018-02-20T08:25:29.314Z,94.70
2018-02-20T08:27:56.874Z,92.17
2018-02-20T08:30:24.740Z,94.60
2018-02-20T08:32:52.885Z,101.20
2018-02-20T08:35:20.426Z,97.93
2018-02-20T08:37:47.971Z,98.00
2018-02-20T08:40:15.494Z,95.97
2018-02-20T08:42:43.049Z,97.13
2018-02-20T08:45:10.895Z,90.67
2018-02-20T08:47:38.441Z,100.97
2018-02-20T08:50:06.451Z,104.43
2018-02-20T08:52:34.411Z,104.90
2018-02-20T08:55:02.040Z,81.63
2018-02-20T08:57:29.598Z,103.07
2018-02-20T08:59:57.142Z,91.00
2018-02-20T09:02:24.941Z,83.77
2018-02-20T09:04:52.530Z,103.87
2018-02-20T09:07:20.084Z,108.93
2018-02-20T09:09:47.599Z,103.27
2018-02-20T09:12:15.158Z,93.70
2018-02-20T09:14:42.712Z,93.30
2018-02-20T09:17:10.242Z,94.47
2018-02-20T09:19:38.074Z,91.33
2018-02-20T09:22:05.645Z,94.83
2018-02-20T09:24:33.402Z,88.27
2018-02-20T09:27:01.028Z,98.87
2018-02-20T09:29:28.553Z,109.00
2018-02-20T09:31:56.111Z,95.20
2018-02-20T09:34:23.646Z,89.70
2018-02-20T09:36:51.191Z,92.57
2018-02-20T09:39:18.738Z,84.90
2018-02-20T09:41:46.354Z,94.40
2018-02-20T09:44:13.953Z,79.33
2018-02-20T09:46:41.498Z,95.70
2018-02-20T09:49:09.069Z,93.97
2018-02-20T09:51:36.990Z,100.07
2018-02-20T09:54:04.842Z,87.70
2018-02-20T09:56:32.378Z,92.30
2018-02-20T09:59:00.012Z,90.97
2018-02-20T10:01:27.568Z,103.73
2018-02-20T10:03:55.118Z,111.07
2018-02-20T10:06:22.694Z,100.17
2018-02-20T10:08:50.521Z,89.00
2018-02-20T10:11:18.089Z,100.33
2018-02-20T10:13:45.671Z,95.13
2018-02-20T10:16:13.226Z,85.67
2018-02-20T10:18:43.546Z,96.30
2018-02-20T10:21:11.066Z,93.07
2018-02-20T10:23:38.614Z,85.63
2018-02-20T10:26:06.412Z,87.67
2018-02-20T10:28:35.530Z,94.50
2018-02-20T10:31:03.185Z,83.77
2018-02-20T10:33:30.726Z,86.20
2018-02-20T10:35:58.281Z,81.17
2018-02-20T10:38:25.829Z,103.03
2018-02-20T10:40:53.369Z,99.07
2018-02-20T10:43:20.942Z,84.97
2018-02-20T10:45:48.782Z,95.67
2018-02-20T10:48:16.313Z,98.77
2018-02-20T10:50:43.854Z,90.80
2018-02-20T10:53:11.431Z,91.77
2018-02-20T10:55:38.990Z,92.03
2018-02-20T10:58:06.549Z,93.97
2018-02-20T11:00:34.106Z,92.30
2018-02-20T11:03:01.718Z,101.43
2018-02-20T11:05:29.246Z,84.97
2018-02-20T11:07:56.788Z,93.90
2018-02-20T11:10:24.326Z,77.50
2018-02-20T11:12:52.216Z,92.53
2018-02-20T11:15:19.746Z,91.77
2018-02-20T11:17:47.647Z,87.50
2018-02-20T11:20:15.202Z,90.23
2018-02-20T11:22:42.730Z,91.50
2018-02-20T11:25:10.308Z,79.53
2018-02-20T11:27:38.091Z,89.40
2018-02-20T11:30:05.630Z,76.73
2018-02-20T11:32:33.151Z,65.57
2018-02-20T11:35:00.768Z,67.13
2018-02-20T11:37:28.341Z,66.00
2018-02-20T11:39:55.967Z,81.70
2018-02-20T11:42:23.510Z,64.50
2018-02-20T11:44:51.058Z,62.83
2018-02-20T11:47:18.663Z,72.57
2018-02-20T11:49:46.557Z,65.50
2018-02-20T11:52:14.114Z,66.87
2018-02-20T11:54:41.682Z,58.93
2018-02-20T11:57:09.210Z,61.00
2018-02-20T11:59:36.782Z,67.83
2018-02-20T12:02:04.342Z,58.63
2018-02-20T12:04:31.919Z,76.77
2018-02-20T12:06:59.463Z,73.40
2018-02-20T12:09:27.044Z,57.07
2018-02-20T12:11:54.636Z,82.13
2018-02-20T12:14:22.167Z,64.93
2018-02-20T12:16:49.748Z,68.70
2018-02-20T12:19:17.511Z,65.43
2018-02-20T12:21:45.062Z,68.23
2018-02-20T12:24:12.908Z,67.63
2018-02-20T12:26:40.447Z,60.83
2018-02-20T12:29:07.994Z,69.53
2018-02-20T12:31:35.523Z,58.10
2018-02-20T12:34:03.134Z,59.23
2018-02-20T12:36:30.823Z,59.63
2018-02-20T12:38:58.363Z,55.83
2018-02-20T12:41:26.244Z,57.30
2018-02-20T12:43:53.802Z,56.80
2018-02-20T12:46:21.438Z,59.40
2018-02-20T12:48:48.987Z,69.30
2018-02-20T12:51:16.550Z,52.27
2018-02-20T12:53:44.462Z,60.60
2018-02-20T12:56:11.976Z,51.93
2018-02-20T12:58:39.765Z,62.70
2018-02-20T13:01:07.300Z,61.13
2018-02-20T13:03:35.113Z,53.27
2018-02-20T13:06:02.647Z,52.80
2018-02-20T13:08:30.278Z,46.23
2018-02-20T13:10:57.823Z,124.33
2018-02-20T13:13:25.368Z,77.27
2018-02-20T13:15:52.937Z,44.00
2018-02-20T13:18:20.468Z,55.20
2018-02-20T13:20:48.018Z,54.57
2018-02-20T13:23:15.546Z,49.10
2018-02-20T13:25:43.172Z,50.77
2018-02-20T13:28:11.022Z,46.17
2018-02-20T13:30:38.564Z,46.20
2018-02-20T13:33:06.315Z,50.13
2018-02-20T13:35:33.877Z,51.97
2018-02-20T13:38:01.425Z,46.37
2018-02-20T13:40:28.986Z,45.13
2018-02-20T13:42:56.503Z,49.47
2018-02-20T13:45:24.059Z,50.23
2018-02-20T13:47:51.921Z,48.33
2018-02-20T13:50:19.482Z,56.37
2018-02-20T13:52:47.002Z,55.37
2018-02-20T13:55:14.549Z,48.07
2018-02-20T13:57:42.060Z,53.57
2018-02-20T14:00:09.603Z,53.60
2018-02-20T14:02:37.173Z,57.30
2018-02-20T14:05:04.738Z,53.27
2018-02-20T14:07:32.722Z,46.33
2018-02-20T14:10:00.294Z,56.03
2018-02-20T14:12:27.829Z,54.10
2018-02-20T14:14:55.345Z,58.13
2018-02-20T14:17:23.277Z,51.60
2018-02-20T14:19:50.812Z,56.17
2018-02-20T14:22:18.340Z,43.70
2018-02-20T14:24:45.959Z,46.93
2018-02-20T14:27:13.659Z,51.80
2018-02-20T14:29:41.476Z,56.00
2018-02-20T14:32:09.017Z,53.60
2018-02-20T14:34:36.570Z,72.23
2018-02-20T14:37:04.132Z,42.97
2018-02-20T14:39:31.925Z,55.57
2018-02-20T14:41:59.462Z,57.87
2018-02-20T14:44:27.249Z,51.33
2018-02-20T14:46:54.829Z,54.30
2018-02-20T14:49:22.379Z,47.13
2018-02-20T14:51:49.953Z,52.63
2018-02-20T14:54:17.491Z,48.87
2018-02-20T14:56:45.071Z,43.20
2018-02-20T14:59:12.627Z,49.80
2018-02-20T15:01:40.490Z,47.37
2018-02-20T15:04:08.049Z,46.77
2018-02-20T15:06:35.603Z,54.50
2018-02-20T15:09:03.171Z,44.13
2018-02-20T15:11:30.712Z,40.63
2018-02-20T15:13:58.251Z,40.70
2018-02-20T15:16:25.870Z,42.33
2018-02-20T15:18:53.418Z,39.40
2018-02-20T15:21:20.950Z,47.80
2018-02-20T15:23:48.833Z,39.30
2018-02-20T15:26:16.707Z,38.53
2018-02-20T15:28:44.235Z,37.33
2018-02-20T15:31:11.792Z,37.23
2018-02-20T15:33:39.320Z,42.97
2018-02-20T15:36:06.859Z,42.80
2018-02-20T15:38:34.417Z,37.30
2018-02-20T15:41:01.947Z,37.03
2018-02-20T15:43:29.498Z,43.43
2018-02-20T15:45:57.087Z,39.53
2018-02-20T15:48:24.621Z,37.33
2018-02-20T15:50:52.213Z,32.80
2018-02-20T15:53:19.734Z,43.23
2018-02-20T15:55:47.285Z,36.13
2018-02-20T15:58:15.098Z,33.50
2018-02-20T16:00:42.661Z,38.97
2018-02-20T16:03:10.188Z,35.03
2018-02-20T16:05:37.735Z,33.33
2018-02-20T16:08:05.255Z,34.37
2018-02-20T16:10:32.852Z,29.93
2018-02-20T16:13:01.351Z,32.17
2018-02-20T16:15:28.939Z,31.23
2018-02-20T16:17:56.465Z,38.23
2018-02-20T16:20:24.015Z,36.70
2018-02-20T16:22:51.568Z,33.70
2018-02-20T16:25:19.095Z,32.70
2018-02-20T16:27:46.665Z,34.10
2018-02-20T16:30:14.204Z,30.17
2018-02-20T16:32:41.716Z,32.33
2018-02-20T16:35:09.269Z,32.60
2018-02-20T16:37:37.026Z,34.23
2018-02-20T16:40:04.857Z,31.47
2018-02-20T16:42:32.496Z,35.03
2018-02-20T16:45:00.039Z,34.53
2018-02-20T16:47:27.641Z,39.03
2018-02-20T16:49:55.507Z,35.90
2018-02-20T16:52:23.061Z,43.67
2018-02-20T16:54:50.649Z,29.03
2018-02-20T16:57:19.025Z,32.10
2018-02-20T16:59:46.587Z,31.87
2018-02-20T17:02:14.163Z,37.90
2018-02-20T17:04:41.682Z,32.87
2018-02-20T17:07:09.275Z,31.17
2018-02-20T17:09:36.800Z,36.53
2018-02-20T17:12:04.681Z,34.13
2018-02-20T17:14:32.547Z,33.40
2018-02-20T17:17:00.084Z,37.63
2018-02-20T17:19:27.631Z,30.77
2018-02-20T17:21:55.243Z,34.03
2018-02-20T17:24:22.803Z,34.23
2018-02-20T17:26:50.476Z,32.73
2018-02-20T17:29:18.054Z,35.57
2018-02-20T17:31:45.602Z,34.73
2018-02-20T17:34:13.216Z,35.07
2018-02-20T17:36:40.811Z,32.30
2018-02-20T17:39:08.368Z,29.43
2018-02-20T17:41:36.013Z,31.83
2018-02-20T17:44:03.544Z,30.30
2018-02-20T17:46:31.135Z,33.87
2018-02-20T17:48:59.484Z,37.20
2018-02-20T17:51:27.093Z,41.77
2018-02-20T17:53:54.641Z,30.03
2018-02-20T17:56:22.238Z,36.80
2018-02-20T17:58:49.770Z,45.03
2018-02-20T18:01:17.282Z,41.63
2018-02-20T18:03:45.206Z,35.60
2018-02-20T18:06:12.808Z,41.30
2018-02-20T18:08:40.399Z,33.80
2018-02-20T18:11:08.009Z,36.30
2018-02-20T18:13:35.526Z,41.40
2018-02-20T18:16:03.308Z,41.53
2018-02-20T18:18:31.275Z,33.03
2018-02-20T18:20:58.865Z,35.93
2018-02-20T18:23:26.435Z,34.33
2018-02-20T18:25:53.984Z,36.77
2018-02-20T18:28:21.521Z,33.83
2018-02-20T18:30:49.090Z,38.17
2018-02-20T18:33:16.689Z,33.13
2018-02-20T18:35:44.546Z,36.37
2018-02-20T18:38:12.110Z,35.90
2018-02-20T18:40:39.665Z,34.97
2018-02-20T18:43:07.279Z,40.20
2018-02-20T18:45:34.863Z,37.13
2018-02-20T18:48:02.395Z,40.43
2018-02-20T18:50:29.941Z,42.43
2018-02-20T18:52:57.626Z,36.00
2018-02-20T18:55:25.220Z,36.90
2018-02-20T18:57:52.779Z,43.20
2018-02-20T19:00:20.541Z,38.83
2018-02-20T19:02:48.089Z,33.53
2018-02-20T19:05:15.625Z,40.30
2018-02-20T19:07:43.146Z,45.63
2018-02-20T19:10:10.743Z,34.33
2018-02-20T19:12:38.264Z,40.60
2018-02-20T19:15:05.787Z,42.80
2018-02-20T19:17:33.365Z,38.50
2018-02-20T19:20:00.890Z,58.83
2018-02-20T19:22:28.464Z,39.07
2018-02-20T19:24:55.975Z,39.97
2018-02-20T19:27:23.501Z,40.63
2018-02-20T19:29:51.033Z,37.77
2018-02-20T19:32:18.552Z,39.33
2018-02-20T19:34:46.515Z,39.03
2018-02-20T19:37:14.081Z,39.67
2018-02-20T19:39:41.909Z,44.57
2018-02-20T19:42:09.471Z,43.27
2018-02-20T19:44:37.043Z,41.27
2018-02-20T19:47:04.564Z,44.23
2018-02-20T19:49:32.132Z,47.57
2018-02-20T19:51:59.679Z,50.33
2018-02-20T19:54:27.317Z,41.37
2018-02-20T19:56:55.140Z,47.60
2018-02-20T19:59:22.662Z,40.73
2018-02-20T20:01:50.228Z,41.97
2018-02-20T20:04:18.043Z,48.03
2018-02-20T20:06:45.628Z,42.20
2018-02-20T20:09:13.224Z,48.47
2018-02-20T20:11:40.775Z,42.70
2018-02-20T20:14:08.329Z,48.93
2018-02-20T20:16:35.850Z,51.40
2018-02-20T20:19:03.815Z,45.53
2018-02-20T20:21:31.415Z,43.80
2018-02-20T20:23:58.959Z,47.03
2018-02-20T20:26:26.503Z,46.80
2018-02-20T20:28:54.082Z,54.07
2018-02-20T20:31:21.599Z,51.23
2018-02-20T20:33:49.155Z,51.97
2018-02-20T20:36:16.957Z,56.53
2018-02-20T20:38:44.486Z,42.47
2018-02-20T20:41:12.100Z,44.50
2018-02-20T20:43:42.684Z,59.10
2018-02-20T20:46:10.226Z,41.80
2018-02-20T20:48:37.771Z,48.83
2018-02-20T20:51:05.409Z,43.80
2018-02-20T20:53:33.062Z,57.43
2018-02-20T20:56:00.638Z,46.13
2018-02-20T20:58:28.178Z,55.73
2018-02-20T21:00:55.808Z,51.90
2018-02-20T21:03:23.337Z,47.00
2018-02-20T21:05:50.907Z,50.93
2018-02-20T21:08:18.440Z,50.87
2018-02-20T21:10:46.017Z,58.23
2018-02-20T21:13:13.632Z,60.63
2018-02-20T21:15:41.486Z,47.83
2018-02-20T21:18:09.056Z,55.80
2018-02-20T21:20:36.565Z,50.40
2018-02-20T21:23:04.088Z,53.70
2018-02-20T21:25:31.687Z,49.40
2018-02-20T21:27:59.287Z,58.87
2018-02-20T21:30:26.900Z,51.07
2018-02-20T21:32:54.461Z,54.57
2018-02-20T21:35:21.992Z,53.43
2018-02-20T21:37:49.547Z,49.73
2018-02-20T21:40:17.087Z,54.07
2018-02-20T21:42:44.610Z,50.97
2018-02-20T21:45:12.418Z,57.83
2018-02-20T21:47:40.007Z,58.80
2018-02-20T21:50:07.573Z,52.90
2018-02-20T21:52:35.103Z,51.27
2018-02-20T21:55:02.668Z,53.50
2018-02-20T21:57:30.251Z,50.70
2018-02-20T21:59:57.767Z,53.70
2018-02-20T22:02:25.314Z,48.40
2018-02-20T22:04:53.112Z,46.50
2018-02-20T22:07:20.625Z,54.97
2018-02-20T22:09:48.210Z,46.13
2018-02-20T22:12:15.717Z,47.27
2018-02-20T22:14:43.229Z,57.13
2018-02-20T22:17:10.787Z,48.70
2018-02-20T22:19:38.313Z,54.43
2018-02-20T22:22:06.083Z,44.23
2018-02-20T22:24:33.631Z,49.97
2018-02-20T22:27:01.416Z,44.10
2018-02-20T22:29:28.990Z,42.90
2018-02-20T22:31:56.514Z,46.63
2018-02-20T22:34:24.054Z,41.47
2018-02-20T22:36:51.915Z,47.83
2018-02-20T22:39:19.443Z,54.23
2018-02-20T22:41:46.999Z,42.93
2018-02-20T22:44:14.551Z,45.20
2018-02-20T22:46:42.134Z,49.83
2018-02-20T22:49:09.683Z,47.23
2018-02-20T22:51:37.210Z,51.37
2018-02-20T22:54:04.760Z,43.20
2018-02-20T22:56:32.309Z,48.87
2018-02-20T22:59:00.174Z,50.93
2018-02-20T23:01:27.726Z,39.83
2018-02-20T23:03:55.247Z,42.97
2018-02-20T23:06:22.794Z,42.97
2018-02-20T23:08:50.319Z,44.90
2018-02-20T23:11:23.565Z,37.47
2018-02-20T23:13:51.361Z,44.03
2018-02-20T23:16:18.900Z,52.50
2018-02-20T23:18:46.463Z,52.47
2018-02-20T23:21:14.064Z,41.83
2018-02-20T23:23:41.586Z,52.17
2018-02-20T23:26:09.159Z,43.27
2018-02-20T23:28:36.720Z,43.27
2018-02-20T23:31:04.333Z,41.40
2018-02-20T23:33:31.958Z,43.70
2018-02-20T23:35:59.492Z,43.80
2018-02-20T23:38:27.167Z,42.53
2018-02-20T23:40:54.739Z,45.23
2018-02-20T23:43:22.326Z,42.73
2018-02-20T23:45:50.165Z,43.27
2018-02-20T23:48:17.683Z,51.80
2018-02-20T23:50:45.409Z,44.47
2018-02-20T23:53:12.977Z,43.43
2018-02-20T23:55:40.516Z,44.00
2018-02-20T23:58:08.083Z,43.17
